Terminal Aerodrome Forecast
Issued by NWS Shreveport, LA

Home | Current Version | Previous Version | Text Only | Print | Product List | Glossary On
Versions: 1 2 3 4 5 6 7 8 9 10 11 12 13 14
000
FTUS44 KSHV 260500
TAFELD
TAF
KELD 260529Z 2606/2706 00000KT 4SM BR SKC
      TEMPO 2608/2611 1SM BR
     FM261100 00000KT 2SM BR SKC
     FM261400 VRB03KT P6SM SKC
     FM261700 20006KT P6SM SKC=

USA.gov is the U.S. government's official web portal to all federal, state and local government web resources and services.